createdAt,value
2018-09-22T00:01:18.177Z,17.10
2018-09-22T00:03:46.727Z,17.40
2018-09-22T00:06:15.254Z,17.30
2018-09-22T00:08:43.896Z,17.30
2018-09-22T00:11:12.570Z,17.20
2018-09-22T00:13:41.926Z,17.10
2018-09-22T00:16:10.500Z,17.40
2018-09-22T00:18:39.812Z,17.00
2018-09-22T00:21:08.960Z,17.20
2018-09-22T00:23:37.868Z,16.90
2018-09-22T00:26:06.637Z,17.40
2018-09-22T00:28:35.436Z,17.30
2018-09-22T00:31:04.412Z,17.10
2018-09-22T00:33:33.250Z,17.10
2018-09-22T00:36:01.965Z,16.80
2018-09-22T00:38:31.268Z,16.70
2018-09-22T00:40:59.937Z,16.70
2018-09-22T00:43:28.583Z,16.70
2018-09-22T00:45:57.149Z,16.30
2018-09-22T00:48:25.662Z,16.10
2018-09-22T00:50:54.437Z,16.20
2018-09-22T00:53:23.019Z,16.00
2018-09-22T00:55:51.663Z,16.20
2018-09-22T00:58:20.435Z,16.00
2018-09-22T01:00:49.024Z,16.10
2018-09-22T01:03:17.631Z,16.10
2018-09-22T01:05:46.992Z,16.20
2018-09-22T01:08:15.567Z,16.30
2018-09-22T01:10:44.093Z,16.20
2018-09-22T01:13:12.728Z,16.10
2018-09-22T01:15:41.328Z,15.90
2018-09-22T01:18:09.972Z,16.20
2018-09-22T01:20:38.595Z,16.30
2018-09-22T01:23:07.269Z,16.10
2018-09-22T01:25:35.985Z,16.50
2018-09-22T01:28:04.642Z,16.50
2018-09-22T01:30:33.782Z,16.60
2018-09-22T01:33:02.421Z,16.20
2018-09-22T01:35:31.012Z,16.50
2018-09-22T01:37:59.631Z,16.30
2018-09-22T01:40:28.222Z,16.40
2018-09-22T01:42:56.813Z,16.00
2018-09-22T01:45:25.614Z,16.30
2018-09-22T01:47:54.296Z,16.10
2018-09-22T01:50:22.839Z,16.10
2018-09-22T01:52:51.715Z,16.10
2018-09-22T01:55:20.277Z,15.90
2018-09-22T01:57:48.888Z,15.90
2018-09-22T02:00:17.718Z,16.00
2018-09-22T02:02:46.486Z,16.20
2018-09-22T02:05:15.214Z,16.30
2018-09-22T02:07:43.787Z,16.20
2018-09-22T02:10:12.416Z,16.30
2018-09-22T02:12:41.068Z,16.30
2018-09-22T02:15:09.708Z,16.20
2018-09-22T02:17:38.592Z,16.20
2018-09-22T02:20:07.205Z,16.20
2018-09-22T02:22:36.951Z,16.10
2018-09-22T02:27:37.480Z,16.10
2018-09-22T02:30:06.632Z,16.30
2018-09-22T02:32:35.179Z,16.40
2018-09-22T02:35:04.001Z,16.10
2018-09-22T02:37:33.443Z,16.10
2018-09-22T02:40:02.044Z,15.90
2018-09-22T02:42:30.615Z,16.10
2018-09-22T02:44:59.125Z,16.10
2018-09-22T02:47:27.733Z,16.10
2018-09-22T02:49:56.284Z,16.10
2018-09-22T02:52:24.844Z,16.00
2018-09-22T02:54:53.800Z,16.00
2018-09-22T02:57:22.345Z,15.80
2018-09-22T02:59:50.928Z,15.80
2018-09-22T03:02:19.507Z,16.10
2018-09-22T03:04:48.037Z,16.10
2018-09-22T03:07:16.584Z,15.90
2018-09-22T03:09:45.536Z,16.00
2018-09-22T03:12:14.211Z,16.30
2018-09-22T03:14:42.817Z,16.10
2018-09-22T03:17:11.387Z,16.00
2018-09-22T03:19:40.150Z,16.10
2018-09-22T03:22:08.695Z,15.80
2018-09-22T03:24:37.363Z,15.80
2018-09-22T03:27:05.987Z,15.90
2018-09-22T03:29:34.635Z,15.80
2018-09-22T03:32:03.183Z,15.70
2018-09-22T03:34:31.790Z,15.80
2018-09-22T03:37:00.310Z,15.70
2018-09-22T03:39:28.949Z,15.50
2018-09-22T03:41:57.578Z,15.30
2018-09-22T03:44:26.155Z,15.60
2018-09-22T03:46:54.780Z,15.60
2018-09-22T03:49:23.315Z,15.70
2018-09-22T03:51:51.981Z,15.60
2018-09-22T03:54:20.577Z,15.50
2018-09-22T03:56:49.210Z,15.50
2018-09-22T03:59:17.826Z,15.50
2018-09-22T04:01:46.439Z,15.50
2018-09-22T04:04:15.138Z,15.70
2018-09-22T04:06:43.752Z,15.80
2018-09-22T04:09:12.497Z,15.70
2018-09-22T04:11:41.457Z,15.70
2018-09-22T04:14:10.032Z,15.50
2018-09-22T04:16:38.567Z,15.50
2018-09-22T04:19:07.433Z,15.50
2018-09-22T04:21:35.996Z,15.70
2018-09-22T04:24:19.732Z,15.60
2018-09-22T04:26:50.055Z,15.50
2018-09-22T04:29:19.379Z,15.70
2018-09-22T04:31:48.176Z,15.50
2018-09-22T04:34:17.696Z,15.80
2018-09-22T04:36:46.235Z,15.70
2018-09-22T04:39:14.823Z,15.60
2018-09-22T04:41:44.501Z,15.70
2018-09-22T04:44:13.154Z,15.80
2018-09-22T04:46:42.273Z,15.60
2018-09-22T04:49:11.612Z,15.90
2018-09-22T04:51:40.265Z,15.50
2018-09-22T04:54:08.775Z,15.50
2018-09-22T04:56:37.542Z,15.60
2018-09-22T04:59:06.180Z,15.50
2018-09-22T05:01:34.731Z,15.40
2018-09-22T05:04:03.305Z,15.70
2018-09-22T05:06:31.969Z,15.70
2018-09-22T05:09:00.596Z,15.70
2018-09-22T05:11:29.177Z,15.40
2018-09-22T05:13:57.881Z,15.80
2018-09-22T05:16:26.540Z,15.50
2018-09-22T05:18:55.125Z,15.50
2018-09-22T05:21:24.290Z,15.40
2018-09-22T05:23:52.926Z,15.40
2018-09-22T05:26:21.527Z,15.60
2018-09-22T05:28:50.090Z,15.50
2018-09-22T05:31:18.793Z,15.70
2018-09-22T05:33:47.403Z,15.70
2018-09-22T05:36:16.020Z,15.40
2018-09-22T05:38:44.545Z,15.60
2018-09-22T05:41:13.802Z,15.40
2018-09-22T05:43:42.523Z,15.50
2018-09-22T05:46:11.126Z,15.40
2018-09-22T05:48:39.722Z,15.40
2018-09-22T05:51:08.343Z,15.40
2018-09-22T05:53:37.885Z,15.40
2018-09-22T05:56:06.472Z,15.40
2018-09-22T05:58:35.097Z,15.50
2018-09-22T06:01:03.664Z,15.40
2018-09-22T06:03:32.929Z,15.50
2018-09-22T06:06:01.626Z,15.80
2018-09-22T06:08:30.266Z,15.40
2018-09-22T06:10:58.815Z,15.70
2018-09-22T06:13:27.417Z,15.70
2018-09-22T06:15:56.135Z,15.80
2018-09-22T06:18:24.754Z,15.60
2018-09-22T06:20:53.372Z,15.40
2018-09-22T06:23:22.067Z,15.30
2018-09-22T06:25:51.360Z,15.50
2018-09-22T06:28:20.215Z,15.50
2018-09-22T06:30:48.826Z,15.70
2018-09-22T06:33:17.550Z,15.60
2018-09-22T06:35:46.180Z,15.50
2018-09-22T06:38:14.704Z,15.80
2018-09-22T06:40:43.656Z,15.80
2018-09-22T06:43:12.308Z,15.60
2018-09-22T06:45:40.866Z,15.80
2018-09-22T06:48:09.789Z,15.70
2018-09-22T06:50:38.366Z,15.70
2018-09-22T06:53:07.111Z,15.70
2018-09-22T06:55:35.759Z,15.90
2018-09-22T06:58:04.393Z,15.90
2018-09-22T07:00:33.107Z,15.80
2018-09-22T07:03:01.771Z,15.70
2018-09-22T07:05:30.401Z,15.80
2018-09-22T07:07:59.966Z,15.90
2018-09-22T07:10:28.499Z,15.90
2018-09-22T07:12:58.009Z,15.90
2018-09-22T07:15:26.583Z,15.80
2018-09-22T07:17:55.232Z,15.90
2018-09-22T07:20:23.943Z,15.80
2018-09-22T07:22:58.106Z,16.00
2018-09-22T07:25:26.742Z,15.90
2018-09-22T07:27:56.185Z,16.00
2018-09-22T07:30:25.442Z,15.80
2018-09-22T07:32:54.064Z,15.90
2018-09-22T07:35:22.787Z,15.90
2018-09-22T07:37:51.617Z,15.80
2018-09-22T07:40:20.329Z,15.70
2018-09-22T07:42:50.345Z,16.00
2018-09-22T07:47:59.180Z,16.00
2018-09-22T07:50:27.774Z,16.20
2018-09-22T07:52:56.441Z,16.30
2018-09-22T07:55:25.096Z,16.10
2018-09-22T07:57:53.768Z,16.30
2018-09-22T08:00:22.471Z,16.30
2018-09-22T08:02:51.512Z,16.20
2018-09-22T08:05:20.132Z,16.20
2018-09-22T08:07:48.941Z,16.30
2018-09-22T08:10:17.686Z,16.40
2018-09-22T08:12:46.307Z,16.50
2018-09-22T08:15:15.139Z,16.30
2018-09-22T08:17:43.744Z,16.50
2018-09-22T08:20:12.367Z,16.60
2018-09-22T08:22:41.135Z,16.60
2018-09-22T08:25:09.860Z,16.40
2018-09-22T08:27:38.455Z,16.60
2018-09-22T08:30:07.909Z,16.70
2018-09-22T08:32:36.663Z,16.60
2018-09-22T08:35:05.280Z,16.70
2018-09-22T08:37:34.402Z,16.70
2018-09-22T08:40:03.242Z,16.60
2018-09-22T08:42:31.969Z,16.70
2018-09-22T08:45:00.614Z,16.80
2018-09-22T08:47:29.269Z,16.90
2018-09-22T08:49:57.881Z,16.80
2018-09-22T08:52:27.339Z,16.90
2018-09-22T08:54:55.985Z,17.00
2018-09-22T08:57:24.571Z,16.70
2018-09-22T08:59:55.908Z,16.90
2018-09-22T09:02:24.640Z,17.20
2018-09-22T09:04:53.271Z,17.10
2018-09-22T09:07:22.329Z,17.10
2018-09-22T09:09:50.965Z,16.90
2018-09-22T09:12:19.926Z,17.30
2018-09-22T09:15:00.795Z,17.50
2018-09-22T09:17:29.406Z,17.40
2018-09-22T09:19:58.048Z,17.60
2018-09-22T09:22:26.598Z,17.20
2018-09-22T09:24:55.412Z,17.40
2018-09-22T09:27:24.094Z,17.60
2018-09-22T09:29:52.616Z,17.40
2018-09-22T09:32:21.234Z,17.30
2018-09-22T09:34:49.845Z,17.50
2018-09-22T09:37:18.409Z,17.80
2018-09-22T09:39:47.048Z,17.50
2018-09-22T09:42:15.634Z,17.70
2018-09-22T09:44:44.158Z,17.80
2018-09-22T09:47:12.868Z,17.70
2018-09-22T09:49:41.466Z,17.70
2018-09-22T09:52:10.127Z,17.90
2018-09-22T09:54:38.859Z,18.00
2018-09-22T09:57:07.839Z,17.70
2018-09-22T09:59:36.410Z,17.60
2018-09-22T10:02:05.029Z,17.70
2018-09-22T10:04:33.642Z,18.10
2018-09-22T10:07:02.876Z,18.20
2018-09-22T10:09:31.496Z,18.00
2018-09-22T10:12:00.047Z,18.20
2018-09-22T10:14:28.735Z,18.30
2018-09-22T10:16:57.309Z,18.30
2018-09-22T10:19:25.920Z,17.90
2018-09-22T10:21:55.138Z,18.20
2018-09-22T10:24:23.799Z,18.00
2018-09-22T10:26:52.668Z,18.30
2018-09-22T10:29:21.287Z,18.20
2018-09-22T10:31:49.834Z,18.40
2018-09-22T10:34:18.535Z,18.30
2018-09-22T10:36:47.173Z,18.40
2018-09-22T10:39:16.468Z,18.50
2018-09-22T10:41:45.045Z,18.50
2018-09-22T10:44:13.658Z,18.40
2018-09-22T10:46:42.336Z,18.40
2018-09-22T10:49:11.694Z,18.70
2018-09-22T10:51:40.385Z,18.80
2018-09-22T10:54:09.092Z,18.60
2018-09-22T10:56:38.039Z,18.40
2018-09-22T10:59:06.775Z,18.70
2018-09-22T11:01:35.779Z,18.50
2018-09-22T11:04:04.609Z,18.40
2018-09-22T11:06:33.409Z,18.60
2018-09-22T11:09:02.228Z,18.60
2018-09-22T11:11:30.792Z,18.70
2018-09-22T11:13:59.380Z,18.60
2018-09-22T11:16:28.560Z,18.60
2018-09-22T11:18:57.102Z,18.80
2018-09-22T11:21:25.660Z,18.70
2018-09-22T11:23:54.273Z,18.90
2018-09-22T11:26:22.893Z,18.70
2018-09-22T11:28:51.524Z,19.10
2018-09-22T11:31:20.085Z,18.70
2018-09-22T11:33:48.700Z,18.90
2018-09-22T11:36:17.556Z,19.10
2018-09-22T11:38:46.691Z,19.00
2018-09-22T11:41:15.278Z,18.90
2018-09-22T11:43:43.985Z,18.70
2018-09-22T11:46:12.723Z,19.20
2018-09-22T11:48:41.306Z,19.00
2018-09-22T11:51:09.898Z,19.10
2018-09-22T11:53:38.477Z,19.20
2018-09-22T11:56:07.165Z,19.00
2018-09-22T11:58:36.422Z,19.10
2018-09-22T12:01:05.168Z,19.00
2018-09-22T12:03:33.824Z,19.10
2018-09-22T12:06:02.598Z,19.30
2018-09-22T12:08:31.195Z,19.20
2018-09-22T12:10:59.872Z,19.30
2018-09-22T12:13:28.454Z,19.20
2018-09-22T12:15:57.011Z,19.30
2018-09-22T12:18:26.371Z,19.40
2018-09-22T12:20:54.970Z,19.50
2018-09-22T12:23:24.241Z,19.50
2018-09-22T12:25:52.827Z,19.40
2018-09-22T12:28:21.457Z,19.60
2018-09-22T12:30:51.153Z,19.40
2018-09-22T12:33:19.728Z,19.40
2018-09-22T12:35:48.370Z,19.40
2018-09-22T12:38:17.318Z,19.30
2018-09-22T12:40:45.952Z,19.40
2018-09-22T12:43:14.524Z,19.30
2018-09-22T12:45:43.372Z,19.20
2018-09-22T12:48:11.962Z,19.40
2018-09-22T12:50:40.608Z,19.40
2018-09-22T12:53:09.223Z,19.40
2018-09-22T12:55:37.973Z,19.20
2018-09-22T12:58:07.484Z,19.30
2018-09-22T13:00:36.136Z,19.40
2018-09-22T13:03:04.882Z,19.10
2018-09-22T13:05:33.692Z,19.30
2018-09-22T13:08:02.888Z,19.40
2018-09-22T13:10:31.598Z,19.50
2018-09-22T13:13:00.326Z,19.40
2018-09-22T13:15:29.401Z,19.60
2018-09-22T13:17:58.134Z,19.40
2018-09-22T13:20:26.730Z,19.30
2018-09-22T13:22:55.924Z,19.30
2018-09-22T13:25:24.519Z,19.40
2018-09-22T13:27:53.298Z,19.30
2018-09-22T13:30:21.958Z,19.40
2018-09-22T13:32:50.585Z,19.20
2018-09-22T13:35:19.251Z,19.40
2018-09-22T13:37:47.952Z,19.10
2018-09-22T13:40:17.521Z,19.40
2018-09-22T13:42:46.149Z,19.40
2018-09-22T13:45:14.841Z,19.30
2018-09-22T13:47:43.511Z,19.50
2018-09-22T13:50:12.028Z,19.50
2018-09-22T13:52:40.619Z,19.50
2018-09-22T13:55:09.220Z,19.50
2018-09-22T13:57:37.801Z,19.60
2018-09-22T14:00:07.087Z,19.60
2018-09-22T14:02:36.176Z,19.40
2018-09-22T14:05:05.228Z,19.60
2018-09-22T14:07:34.011Z,19.40
2018-09-22T14:10:02.632Z,19.20
2018-09-22T14:12:31.264Z,19.40
2018-09-22T14:15:00.043Z,19.40
2018-09-22T14:17:28.717Z,19.50
2018-09-22T14:19:57.862Z,19.40
2018-09-22T14:22:26.602Z,19.40
2018-09-22T14:24:55.532Z,19.60
2018-09-22T14:27:24.141Z,19.30
2018-09-22T14:29:52.879Z,19.50
2018-09-22T14:32:21.502Z,19.40
2018-09-22T14:34:50.184Z,19.40
2018-09-22T14:37:18.963Z,19.40
2018-09-22T14:39:47.554Z,18.90
2018-09-22T14:42:17.085Z,18.70
2018-09-22T14:44:46.200Z,18.70
2018-09-22T14:47:14.811Z,18.70
2018-09-22T14:49:43.428Z,18.70
2018-09-22T14:52:12.064Z,18.90
2018-09-22T14:54:40.676Z,18.70
2018-09-22T14:57:09.656Z,18.60
2018-09-22T14:59:38.351Z,18.60
2018-09-22T15:02:07.205Z,18.40
2018-09-22T15:04:36.174Z,18.40
2018-09-22T15:07:04.867Z,18.60
2018-09-22T15:09:33.454Z,18.60
2018-09-22T15:12:02.046Z,18.70
2018-09-22T15:14:30.697Z,18.40
2018-09-22T15:16:59.907Z,18.40
2018-09-22T15:19:28.525Z,18.20
2018-09-22T15:21:57.524Z,18.20
2018-09-22T15:24:26.179Z,18.30
2018-09-22T15:26:54.814Z,18.20
2018-09-22T15:29:24.207Z,18.00
2018-09-22T15:31:52.748Z,18.40
2018-09-22T15:34:21.492Z,18.40
2018-09-22T15:36:50.205Z,18.60
2018-09-22T15:39:19.230Z,17.90
2018-09-22T15:41:48.890Z,18.40
2018-09-22T15:44:18.078Z,18.10
2018-09-22T15:46:46.652Z,18.20
2018-09-22T15:49:15.212Z,18.00
2018-09-22T15:51:43.865Z,18.00
2018-09-22T15:54:12.436Z,18.00
2018-09-22T15:56:41.184Z,17.80
2018-09-22T15:59:10.014Z,17.90
2018-09-22T16:01:38.605Z,17.70
2018-09-22T16:04:07.206Z,17.60
2018-09-22T16:06:35.830Z,17.90
2018-09-22T16:09:06.308Z,17.50
2018-09-22T16:11:34.840Z,17.70
2018-09-22T16:14:03.474Z,17.60
2018-09-22T16:16:32.053Z,17.80
2018-09-22T16:19:00.766Z,17.50
2018-09-22T16:21:29.445Z,17.50
2018-09-22T16:23:58.131Z,17.90
2018-09-22T16:26:26.858Z,17.70
2018-09-22T16:28:56.545Z,17.60
2018-09-22T16:31:25.196Z,17.40
2018-09-22T16:33:53.986Z,17.30
2018-09-22T16:36:22.641Z,17.30
2018-09-22T16:38:51.261Z,17.20
2018-09-22T16:41:20.732Z,17.40
2018-09-22T16:43:49.294Z,17.20
2018-09-22T16:46:17.945Z,17.40
2018-09-22T16:48:46.540Z,17.40
2018-09-22T16:51:15.104Z,17.20
2018-09-22T16:53:44.193Z,17.20
2018-09-22T16:56:13.043Z,17.00
2018-09-22T16:58:41.752Z,17.20
2018-09-22T17:01:10.606Z,17.30
2018-09-22T17:03:39.192Z,17.30
2018-09-22T17:06:07.945Z,17.30
2018-09-22T17:08:37.327Z,17.20
2018-09-22T17:11:05.997Z,17.20
2018-09-22T17:13:34.756Z,17.30
2018-09-22T17:16:03.432Z,17.10
2018-09-22T17:18:32.143Z,17.30
2018-09-22T17:21:00.684Z,17.40
2018-09-22T17:23:29.284Z,17.20
2018-09-22T17:25:57.855Z,17.50
2018-09-22T17:28:26.437Z,17.30
2018-09-22T17:30:55.231Z,17.30
2018-09-22T17:33:23.813Z,17.20
2018-09-22T17:35:52.456Z,17.20
2018-09-22T17:38:21.152Z,17.30
2018-09-22T17:40:49.771Z,17.20
2018-09-22T17:43:18.479Z,17.00
2018-09-22T17:45:54.147Z,17.20
2018-09-22T17:48:22.705Z,17.00
2018-09-22T17:50:51.344Z,16.80
2018-09-22T17:53:20.006Z,16.90
2018-09-22T17:55:48.613Z,17.00
2018-09-22T17:58:17.389Z,16.80
2018-09-22T18:00:46.138Z,17.00
2018-09-22T18:03:14.664Z,16.90
2018-09-22T18:05:43.247Z,16.60
2018-09-22T18:08:11.964Z,16.80
2018-09-22T18:10:40.555Z,17.10
2018-09-22T18:13:09.177Z,16.90
2018-09-22T18:15:37.800Z,17.00
2018-09-22T18:18:06.382Z,16.90
2018-09-22T18:20:35.950Z,17.00
2018-09-22T18:23:04.691Z,16.80
2018-09-22T18:25:33.338Z,16.60
2018-09-22T18:28:02.181Z,16.80
2018-09-22T18:30:30.832Z,16.70
2018-09-22T18:33:00.107Z,16.70
2018-09-22T18:35:28.848Z,16.90
2018-09-22T18:37:57.523Z,16.90
2018-09-22T18:40:26.160Z,16.80
2018-09-22T18:42:54.798Z,16.80
2018-09-22T18:45:23.346Z,16.90
2018-09-22T18:47:51.991Z,16.50
2018-09-22T18:50:20.956Z,16.70
2018-09-22T18:52:49.918Z,16.70
2018-09-22T18:55:18.535Z,16.40
2018-09-22T18:57:47.252Z,16.50
2018-09-22T19:00:15.961Z,16.50
2018-09-22T19:02:45.407Z,16.50
2018-09-22T19:05:14.031Z,16.50
2018-09-22T19:07:42.676Z,16.30
2018-09-22T19:10:12.036Z,16.60
2018-09-22T19:12:41.220Z,16.60
2018-09-22T19:15:15.008Z,16.50
2018-09-22T19:17:54.659Z,16.40
2018-09-22T19:20:59.425Z,16.30
2018-09-22T19:23:33.397Z,16.40
2018-09-22T19:26:06.930Z,16.50
2018-09-22T19:28:44.075Z,16.30
2018-09-22T19:31:16.672Z,16.40
2018-09-22T19:33:49.446Z,16.30
2018-09-22T19:36:28.159Z,16.30
2018-09-22T19:38:59.777Z,16.20
2018-09-22T19:41:33.361Z,16.00
2018-09-22T19:44:07.304Z,16.10
2018-09-22T19:46:46.953Z,16.20
2018-09-22T19:49:19.371Z,16.30
2018-09-22T19:51:55.715Z,16.10
2018-09-22T19:54:24.350Z,16.40
2018-09-22T19:56:53.002Z,16.30
2018-09-22T19:59:21.723Z,16.30
2018-09-22T20:01:50.364Z,16.10
2018-09-22T20:04:19.002Z,16.30
2018-09-22T20:06:47.607Z,16.20
2018-09-22T20:09:16.196Z,16.40
2018-09-22T20:11:44.871Z,16.10
2018-09-22T20:14:13.434Z,16.30
2018-09-22T20:16:42.099Z,16.50
2018-09-22T20:19:10.666Z,16.30
2018-09-22T20:21:39.400Z,16.30
2018-09-22T20:24:07.964Z,16.50
2018-09-22T20:26:36.857Z,16.10
2018-09-22T20:29:05.559Z,16.30
2018-09-22T20:31:34.215Z,16.30
2018-09-22T20:34:02.924Z,16.10
2018-09-22T20:36:31.922Z,16.30
2018-09-22T20:39:00.612Z,16.40
2018-09-22T20:41:29.415Z,16.30
2018-09-22T20:43:58.294Z,16.40
2018-09-22T20:46:27.471Z,16.10
2018-09-22T20:48:56.094Z,16.30
2018-09-22T20:51:25.059Z,16.10
2018-09-22T20:53:54.848Z,16.40
2018-09-22T20:56:23.539Z,16.40
2018-09-22T20:58:52.217Z,16.30
2018-09-22T21:01:20.854Z,16.20
2018-09-22T21:03:49.487Z,16.40
2018-09-22T21:06:18.932Z,16.30
2018-09-22T21:08:47.555Z,16.20
2018-09-22T21:11:16.140Z,16.30
2018-09-22T21:13:45.335Z,16.50
2018-09-22T21:16:14.204Z,16.30
2018-09-22T21:18:42.840Z,16.40
2018-09-22T21:21:11.470Z,16.20
2018-09-22T21:23:40.167Z,16.20
2018-09-22T21:26:08.795Z,16.20
2018-09-22T21:28:37.374Z,16.20
2018-09-22T21:31:06.308Z,16.20
2018-09-22T21:33:34.911Z,16.20
2018-09-22T21:36:03.512Z,16.40
2018-09-22T21:38:32.171Z,16.20
2018-09-22T21:41:00.902Z,16.20
2018-09-22T21:43:29.601Z,16.20
2018-09-22T21:45:58.168Z,16.40
2018-09-22T21:48:26.977Z,16.20
2018-09-22T21:50:55.737Z,16.20
2018-09-22T21:53:24.581Z,16.10
2018-09-22T21:55:53.170Z,16.20
2018-09-22T21:58:23.371Z,16.10
2018-09-22T22:00:54.117Z,16.00
2018-09-22T22:03:24.688Z,16.20
2018-09-22T22:05:53.328Z,16.30
2018-09-22T22:08:21.997Z,16.10
2018-09-22T22:10:50.544Z,16.30
2018-09-22T22:13:19.144Z,16.10
2018-09-22T22:15:47.806Z,16.10
2018-09-22T22:18:16.398Z,15.90
2018-09-22T22:20:45.152Z,15.80
2018-09-22T22:23:14.438Z,16.00
2018-09-22T22:25:43.025Z,16.10
2018-09-22T22:28:11.693Z,16.20
2018-09-22T22:30:40.274Z,16.10
2018-09-22T22:33:08.920Z,16.30
2018-09-22T22:35:38.251Z,16.10
2018-09-22T22:38:08.085Z,16.40
2018-09-22T22:40:36.761Z,16.20
2018-09-22T22:43:05.315Z,16.30
2018-09-22T22:45:33.931Z,16.20
2018-09-22T22:48:02.495Z,16.20
2018-09-22T22:50:31.085Z,16.10
2018-09-22T22:53:00.377Z,16.00
2018-09-22T22:55:29.049Z,16.30
2018-09-22T22:57:57.680Z,16.30
2018-09-22T23:00:26.299Z,15.80
2018-09-22T23:02:55.499Z,16.10
2018-09-22T23:05:24.188Z,16.20
2018-09-22T23:07:52.799Z,15.90
2018-09-22T23:10:21.622Z,16.20
2018-09-22T23:12:50.278Z,15.90
2018-09-22T23:15:18.924Z,16.10
2018-09-22T23:17:47.632Z,16.00
2018-09-22T23:20:17.541Z,16.20
2018-09-22T23:22:47.283Z,16.20
2018-09-22T23:25:15.912Z,16.20
2018-09-22T23:27:44.502Z,16.00
2018-09-22T23:30:13.127Z,16.20
2018-09-22T23:32:41.695Z,15.90
2018-09-22T23:35:10.315Z,16.00
2018-09-22T23:37:39.037Z,15.90
2018-09-22T23:40:07.667Z,15.70
2018-09-22T23:42:36.250Z,15.70
2018-09-22T23:45:04.954Z,15.80
2018-09-22T23:47:33.511Z,15.70
2018-09-22T23:50:02.091Z,15.90
2018-09-22T23:52:30.683Z,15.80
2018-09-22T23:54:59.996Z,15.90
2018-09-22T23:57:30.062Z,15.70
2018-09-22T23:59:59.820Z,15.90
